Latest Weather Observations for Hobart

IDT60801

Issued at 10:02 pm EST Thursday 30 June 2016 (issued every 30 minutes, with the page automatically refreshed every 10 minutes)

About weather observations | Map of weather stations | Latest weather observations for TAS | Other Formats
Station Details ID: 094029 Name: HOBART (ELLERSLIE ROAD) Lat: -42.89 Lon: 147.33 Height: 50.5 m
Data from the previous 72 hours. | See also: Recent months at Hobart
Date/Time
EST
Temp
°C
App
Temp
°C
Dew
Point
°C
Rel
Hum
%
Delta-T
°C
Wind Press
QNH
hPa
Press
MSL
hPa
Rain since
9am
mm
Dir  Spd
km/h
Gust
km/h
Spd
kts
Gust
kts
30/10:00pm 8.4 6.4 6.2 86 1.0 WNW 6 9 3 5 1004.2 1004.3 0.0
30/09:30pm 8.9 6.4 6.5 85 1.1 W 9 13 5 7 1003.9 1004.0 0.0
30/09:00pm 10.0 7.1 6.6 79 1.6 WNW 11 19 6 10 1003.7 1003.8 0.0
30/08:30pm 9.9 8.0 6.7 80 1.5 W 6 19 3 10 1003.5 1003.6 0.0
30/08:00pm 9.8 7.9 6.6 80 1.5 SW 6 9 3 5 1003.2 1003.3 0.0
30/07:30pm 10.2 7.7 6.4 77 1.8 NNW 9 11 5 6 1002.9 1003.0 0.0
30/07:00pm 10.1 7.6 6.5 78 1.7 N 9 11 5 6 1002.6 1002.7 0.0
30/06:30pm 10.0 7.6 6.8 80 1.5 WSW 9 13 5 7 1002.5 1002.6 0.0
30/06:00pm 10.7 8.6 6.0 73 2.2 NE 6 9 3 5 1002.1 1002.2 0.0
30/05:30pm 11.0 8.8 5.4 68 2.6 NNE 6 9 3 5 1001.7 1001.8 0.0
30/05:00pm 11.2 8.5 5.4 67 2.7 NW 9 15 5 8 1001.2 1001.3 0.0
30/04:30pm 12.0 7.7 5.1 62 3.2 NNW 17 28 9 15 1000.6 1000.7 0.0
30/04:00pm 12.5 7.1 4.4 58 3.7 NNW 22 33 12 18 1000.0 1000.1 0.0
30/03:30pm 12.5 7.3 5.5 62 3.3 N 22 33 12 18 999.9 1000.0 0.0
30/03:00pm 13.2 6.6 4.3 55 4.1 NNW 28 48 15 26 999.6 999.7 0.0
30/02:59pm 13.2 6.7 4.6 56 4.0 NNW 28 48 15 26 999.6 999.7 0.0
30/02:30pm 13.4 8.1 5.1 57 3.9 N 22 41 12 22 999.7 999.8 0.0
30/02:00pm 13.2 8.1 5.9 61 3.5 N 22 33 12 18 1000.2 1000.3 0.0
30/01:30pm 12.8 8.2 5.8 62 3.3 N 19 28 10 15 1000.6 1000.7 0.0
30/01:00pm 12.1 8.8 6.5 68 2.7 N 13 24 7 13 1001.0 1001.1 0.0
30/12:30pm 11.7 7.5 5.7 66 2.8 N 17 28 9 15 1001.5 1001.6 0.0
30/12:00pm 11.9 7.7 5.5 65 3.0 N 17 24 9 13 1002.3 1002.4 0.0
30/11:30am 12.4 7.7 5.1 61 3.4 N 19 28 10 15 1002.9 1003.0 0.0
30/11:00am 12.0 6.7 5.1 62 3.2 NNE 22 33 12 18 1003.4 1003.5 0.0
30/10:30am 11.7 7.7 5.0 63 3.1 N 15 20 8 11 1004.2 1004.3 0.0
30/10:00am 11.3 7.6 4.7 64 3.0 NNE 13 19 7 10 1004.6 1004.7 0.0
30/09:30am 11.1 7.5 5.0 66 2.8 N 13 20 7 11 1004.8 1004.9 0.0
30/09:00am 10.9 6.9 4.7 65 2.8 NNE 15 22 8 12 1005.2 1005.3 0.0
30/08:30am 10.6 6.8 4.1 64 2.9 N 13 19 7 10 1005.3 1005.4 0.0
30/08:00am 10.4 7.0 4.1 65 2.8 N 11 17 6 9 1005.7 1005.8 0.0
30/07:30am 10.1 6.2 3.2 62 3.0 N 13 19 7 10 1006.1 1006.2 0.0
30/07:00am 9.6 7.1 3.7 66 2.6 NNE 6 11 3 6 1006.3 1006.4 0.0
30/06:30am 10.1 7.2 2.7 60 3.2 NNE 7 13 4 7 1006.9 1007.0 0.0
30/06:00am 11.1 5.7 1.4 51 4.1 N 19 30 10 16 1007.3 1007.4 0.0
30/05:30am 11.2 5.1 0.6 48 4.4 N 22 35 12 19 1007.3 1007.4 0.0
30/05:00am 11.3 5.2 0.1 46 4.6 N 22 33 12 18 1007.8 1007.9 0.0
30/04:35am 11.8 4.4 -0.8 41 5.1 N 28 46 15 25 1008.1 1008.2 0.0
30/04:30am 11.6 4.7 -0.1 44 4.8 N 26 37 14 20 1008.1 1008.2 0.0
30/04:00am 10.6 4.7 1.6 53 3.8 NNW 22 30 12 16 1008.2 1008.3 0.0
30/03:30am 10.2 4.1 2.8 60 3.2 N 24 39 13 21 1008.7 1008.8 0.0
30/03:00am 9.3 5.2 4.6 72 2.1 NNW 15 20 8 11 1009.7 1009.8 0.0
30/02:30am 9.5 5.0 4.3 70 2.3 NNW 17 24 9 13 1010.2 1010.3 0.0
30/02:00am 9.6 5.2 4.7 71 2.2 NNW 17 20 9 11 1010.7 1010.8 0.0
30/01:30am 9.6 4.8 4.7 71 2.2 N 19 24 10 13 1011.1 1011.2 0.0
30/01:00am 9.4 4.6 4.5 71 2.2 NNW 19 22 10 12 1011.7 1011.8 0.0
30/12:30am 9.3 4.3 4.6 72 2.1 NNW 20 30 11 16 1012.4 1012.5 0.0
30/12:00am 8.8 3.7 4.3 73 2.0 NNW 20 28 11 15 1013.1 1013.2 0.0
 
Date/Time
EST
Temp
°C
App
Temp
°C
Dew
Point
°C
Rel
Hum
%
Delta-T
°C
Wind Press
QNH
hPa
Press
MSL
hPa
Rain since
9am
mm
Dir  Spd
km/h
Gust
km/h
Spd
kts
Gust
kts
29/11:30pm 9.0 3.5 4.0 71 2.2 NNW 22 32 12 17 1013.7 1013.8 0.0
29/11:00pm 8.7 4.9 4.1 73 2.0 NNW 13 20 7 11 1014.2 1014.3 0.0
29/10:30pm 8.5 4.4 4.4 75 1.8 NNW 15 20 8 11 1014.6 1014.7 0.0
29/10:00pm 9.4 4.8 3.9 68 2.4 N 17 28 9 15 1015.0 1015.1 0.0
29/09:30pm 8.9 4.1 4.9 76 1.8 NNW 19 24 10 13 1015.3 1015.4 0.0
29/09:00pm 9.4 4.1 4.9 73 2.0 NW 22 28 12 15 1015.6 1015.7 0.0
29/08:30pm 9.3 4.4 5.1 75 1.9 NNW 20 28 11 15 1016.1 1016.2 0.0
29/08:00pm 9.2 5.8 5.7 79 1.6 NNW 13 17 7 9 1016.4 1016.5 0.0
29/07:30pm 10.0 7.0 5.9 75 1.9 N 11 13 6 7 1016.5 1016.6 0.0
29/07:00pm 10.5 6.3 5.7 72 2.2 NNW 17 20 9 11 1016.7 1016.8 0.0
29/06:30pm 9.5 7.0 6.5 81 1.4 NNW 9 15 5 8 1016.9 1017.0 0.0
29/06:00pm 10.7 8.2 6.7 76 1.9 N 9 11 5 6 1017.2 1017.3 0.0
29/05:30pm 11.3 9.2 6.7 73 2.2 NNW 7 9 4 5 1017.3 1017.4 0.0
29/05:00pm 12.3 9.0 6.4 67 2.8 NNW 13 17 7 9 1017.4 1017.5 0.0
29/04:30pm 12.9 9.6 6.4 64 3.1 NW 13 19 7 10 1017.4 1017.5 0.0
29/04:00pm 13.4 11.2 7.7 68 2.8 WNW 9 15 5 8 1017.5 1017.6 0.0
29/03:30pm 13.6 10.2 7.5 66 3.0 NNW 15 24 8 13 1017.7 1017.8 0.0
29/03:00pm 13.7 9.8 6.9 63 3.3 NW 17 24 9 13 1017.6 1017.7 0.0
29/02:30pm 14.0 10.5 7.3 64 3.3 NW 15 26 8 14 1017.7 1017.8 0.0
29/02:00pm 13.6 9.8 7.5 66 3.0 NNW 17 20 9 11 1017.9 1018.0 0.0
29/01:30pm 13.0 8.9 7.7 70 2.6 NNW 19 24 10 13 1018.2 1018.3 0.0
29/01:00pm 13.4 9.0 7.5 67 2.9 NNW 20 33 11 18 1018.4 1018.5 0.0
29/12:30pm 14.1 10.8 8.1 67 3.0 NNW 15 24 8 13 1018.8 1018.9 0.0
29/12:00pm 13.1 10.1 7.8 70 2.6 N 13 19 7 10 1019.0 1019.1 0.0
29/11:30am 12.2 8.1 7.9 75 2.1 NNW 19 24 10 13 1019.6 1019.7 0.0
29/11:00am 12.2 7.1 7.7 74 2.2 NNW 24 33 13 18 1019.9 1020.0 0.0
29/10:30am 11.8 8.8 7.9 77 1.9 NW 13 28 7 15 1019.9 1020.0 0.0
29/10:00am 11.5 8.1 7.8 78 1.8 NNW 15 28 8 15 1019.9 1020.0 0.0
29/09:30am 11.1 7.4 7.8 80 1.6 NNW 17 24 9 13 1019.9 1020.0 0.0
29/09:00am 10.9 7.9 7.6 80 1.6 N 13 17 7 9 1019.8 1019.9 1.8
29/08:30am 10.2 7.5 7.5 83 1.3 NE 11 15 6 8 1019.5 1019.6 1.8
29/08:00am 10.0 8.0 7.3 83 1.3 WNW 7 13 4 7 1019.2 1019.3 1.8
29/07:30am 10.3 8.4 7.4 82 1.4 SW 7 13 4 7 1019.1 1019.2 1.8
29/07:00am 10.4 7.7 7.5 82 1.4 NW 11 17 6 9 1018.6 1018.7 1.8
29/06:30am 10.4 6.0 7.5 82 1.4 NW 20 32 11 17 1017.9 1018.0 1.8
29/06:00am 10.3 6.0 8.0 86 1.1 NNW 20 26 11 14 1017.5 1017.6 1.8
29/05:30am 10.2 5.3 8.6 90 0.8 NNW 24 33 13 18 1016.9 1017.0 1.8
29/05:00am 10.4 6.5 8.6 89 0.9 NNW 19 24 10 13 1017.0 1017.1 1.6
29/04:30am 10.5 9.1 8.7 89 0.9 NNE 6 11 3 6 1017.0 1017.1 1.6
29/04:00am 10.8 9.1 8.3 84 1.2 SSW 7 13 4 7 1017.1 1017.2 1.2
29/03:30am 12.4 8.9 5.5 63 3.2 W 13 20 7 11 1016.3 1016.4 1.0
29/03:00am 12.7 8.6 4.6 58 3.7 NNW 15 24 8 13 1015.9 1016.0 1.0
29/02:30am 12.5 8.9 4.9 60 3.5 N 13 20 7 11 1015.6 1015.7 1.0
29/02:00am 12.7 8.3 4.6 58 3.7 N 17 24 9 13 1015.5 1015.6 1.0
29/01:30am 12.5 8.1 4.9 60 3.5 N 17 22 9 12 1015.3 1015.4 1.0
29/01:00am 12.4 8.1 5.3 62 3.3 N 17 28 9 15 1015.2 1015.3 1.0
29/12:30am 12.4 8.5 5.3 62 3.3 N 15 22 8 12 1015.1 1015.2 1.0
29/12:00am 12.4 8.5 5.5 63 3.2 N 15 24 8 13 1015.0 1015.1 1.0
 
Date/Time
EST
Temp
°C
App
Temp
°C
Dew
Point
°C
Rel
Hum
%
Delta-T
°C
Wind Press
QNH
hPa
Press
MSL
hPa
Rain since
9am
mm
Dir  Spd
km/h
Gust
km/h
Spd
kts
Gust
kts
28/11:30pm 12.6 8.0 5.5 62 3.3 N 19 32 10 17 1015.1 1015.2 1.0
28/11:00pm 12.2 6.7 6.0 66 2.9 N 24 39 13 21 1015.0 1015.1 1.0
28/10:30pm 12.2 7.7 6.8 69 2.6 NNW 20 28 11 15 1015.2 1015.3 1.0
28/10:00pm 11.8 7.4 7.5 75 2.1 NNW 20 28 11 15 1014.8 1014.9 1.0
28/09:30pm 11.9 7.2 7.8 76 2.0 NNW 22 37 12 20 1015.1 1015.2 1.0
28/09:00pm 11.6 8.1 8.8 83 1.4 NNE 17 24 9 13 1015.1 1015.2 1.0
28/08:30pm 11.8 9.4 8.8 82 1.5 NNE 11 15 6 8 1015.1 1015.2 0.6
28/08:00pm 11.8 8.7 8.8 82 1.5 N 15 22 8 12 1015.1 1015.2 0.6
28/07:30pm 11.6 9.7 9.0 84 1.3 NNW 9 13 5 7 1014.9 1015.0 0.4
28/07:00pm 12.3 9.1 8.3 76 2.0 NNW 15 22 8 12 1014.8 1014.9 0.2
28/06:30pm 12.3 8.8 8.7 79 1.8 NNW 17 26 9 14 1014.3 1014.4 0.2
28/06:00pm 12.4 8.3 8.8 79 1.8 NW 20 30 11 16 1014.4 1014.5 0.0
28/05:30pm 13.4 9.0 7.3 66 3.0 NW 20 30 11 16 1014.1 1014.2 0.0
28/05:00pm 13.5 9.2 7.1 65 3.1 NNW 19 26 10 14 1014.0 1014.1 0.0
28/04:30pm 14.0 9.7 7.0 62 3.4 NW 19 26 10 14 1013.8 1013.9 0.0
28/04:00pm 14.9 10.8 6.2 56 4.2 NW 17 28 9 15 1013.5 1013.6 0.0
28/03:30pm 15.1 11.3 6.0 54 4.4 NNW 15 19 8 10 1013.5 1013.6 0.0
28/03:00pm 15.2 11.8 6.1 54 4.4 NNW 13 24 7 13 1013.3 1013.4 0.0
28/02:30pm 15.0 9.3 5.0 51 4.7 NNW 24 39 13 21 1013.0 1013.1 0.0
28/02:00pm 15.4 11.5 6.9 57 4.2 NNW 17 32 9 17 1012.7 1012.8 0.0
28/01:30pm 15.0 10.3 7.6 61 3.7 NNW 22 35 12 19 1012.9 1013.0 0.0
28/01:00pm 15.3 10.3 8.2 62 3.6 NW 24 39 13 21 1012.7 1012.8 0.0
28/12:30pm 14.6 9.1 7.5 62 3.5 NW 26 39 14 21 1012.7 1012.8 0.0
28/12:00pm 13.3 9.1 8.1 71 2.6 NW 20 32 11 17 1013.0 1013.1 0.0
28/11:30am 13.3 8.6 7.6 68 2.8 WNW 22 32 12 17 1013.3 1013.4 0.0
28/11:12am 13.5 7.6 7.6 67 2.9 WNW 28 46 15 25 1013.6 1013.7 0.0
28/11:00am 13.0 6.7 7.2 68 2.8 NW 30 46 16 25 1013.5 1013.6 0.0
28/10:30am 12.3 7.6 7.6 73 2.3 NW 22 39 12 21 1013.5 1013.6 0.0
28/10:00am 11.3 7.1 7.6 78 1.8 NNW 19 32 10 17 1013.5 1013.6 0.0
28/09:30am 11.1 7.3 7.4 78 1.8 NNW 17 26 9 14 1013.4 1013.5 0.0
28/09:00am 12.1 7.6 6.9 70 2.5 NW 20 32 11 17 1012.8 1012.9 0.0
28/08:30am 11.4 6.1 6.8 73 2.2 NW 24 33 13 18 1012.6 1012.7 0.0
28/08:00am 11.0 6.4 6.6 74 2.1 NW 20 33 11 18 1012.3 1012.4 0.0
28/07:30am 11.0 4.9 6.6 74 2.1 WNW 28 43 15 23 1012.0 1012.1 0.0
28/07:00am 10.9 4.8 6.4 74 2.1 NW 28 39 15 21 1012.0 1012.1 0.0
28/06:30am 11.1 4.5 6.0 71 2.4 WNW 30 41 16 22 1011.7 1011.8 0.0
28/06:00am 11.1 4.0 5.7 69 2.5 WNW 32 46 17 25 1011.1 1011.2 0.0
28/05:30am 10.6 3.0 5.6 71 2.3 NW 35 46 19 25 1010.6 1010.7 0.0
28/05:00am 10.8 3.4 4.9 67 2.7 NW 33 50 18 27 1010.4 1010.4 0.0
28/04:30am 10.8 3.4 4.9 67 2.7 NW 33 54 18 29 1010.1 1010.2 0.0
28/04:21am 10.9 3.1 4.7 65 2.8 NW 35 54 19 29 1010.4 1010.4 0.0
28/04:00am 11.0 3.1 4.3 63 3.0 NW 35 48 19 26 1010.4 1010.4 0.0
28/03:30am 10.9 3.0 4.2 63 3.0 NW 35 46 19 25 1010.4 1010.4 0.0
28/03:00am 11.0 4.0 4.1 62 3.1 NNW 30 44 16 24 1010.7 1010.8 0.0
28/02:30am 10.8 4.6 4.1 63 3.0 NNW 26 37 14 20 1010.8 1010.9 0.0
28/02:00am 10.3 5.7 3.7 63 2.9 N 17 28 9 15 1010.7 1010.8 0.0
28/01:30am 10.4 5.2 3.3 61 3.1 N 20 32 11 17 1010.5 1010.5 0.0
28/01:00am 10.1 4.5 3.2 62 3.0 NNE 22 33 12 18 1010.1 1010.2 0.0
28/12:30am 10.1 4.4 2.9 61 3.1 NNE 22 35 12 19 1010.4 1010.4 0.0
28/12:00am 9.9 3.8 2.7 61 3.1 NNE 24 35 13 19 1010.2 1010.3 0.0
 
Date/Time
EST
Temp
°C
App
Temp
°C
Dew
Point
°C
Rel
Hum
%
Delta-T
°C
Wind Press
QNH
hPa
Press
MSL
hPa
Rain since
9am
mm
Dir  Spd
km/h
Gust
km/h
Spd
kts
Gust
kts
27/11:30pm 9.8 3.3 2.5 60 3.1 N 26 37 14 20 1010.6 1010.7 0.0
27/11:00pm 9.8 3.2 2.0 58 3.3 N 26 39 14 21 1010.6 1010.7 0.0
27/10:30pm 9.7 3.9 2.1 59 3.2 N 22 32 12 17 1010.9 1011.0 0.0

Other Formats:

Comma delimited format used in spreadsheet applications
http://www.bom.gov.au/fwo/IDT60801/IDT60801.94970.axf

JavaScript Object Notation format (JSON) in row-major order
http://www.bom.gov.au/fwo/IDT60801/IDT60801.94970.json